KDTA

Delta Municipal Airport

Delta, Utah, USA
METAR KDTA 212315Z AUTO 16020G27KT 10SM CLR 29/08 A3002 RMK AO1
Observed Flight Rules
Aug-21 @ 23:15 UTC (30 minutes ago) Visual Flight Rules
Wind Visibility Clouds
160° at 20 knots
 Gusting to 27 knots
10 miles
  • Clear skies
Temperatures Readings
Current 29°C / 84°F
Dewpoint 8°C / 46°F
Humidity 27%
Altimeter 30.02" Hg
Pressure 1017 hPa
Elevation 1402
METAR KDTA 212315Z AUTO 16020G27KT 10SM CLR 29/08 A3002 RMK AO1
Observed Flight Rules
Aug-21 @ 23:15 UTC
(30 minutes ago)
VFR
Wind Visibility
160° at 20 knots
 Gusting to 27 knots
10 miles
Clouds
  • Clear skies
Temperature Dewpoint
29°C / 84°F 8°C / 46°F
Humidity Altimeter Pressure
27% 30.02" Hg 1017 hPa